sensor_id;sensor_type;location;lat;lon;timestamp;P1;durP1;ratioP1;P2;durP2;ratioP2
5507;SDS011;2776;51.046;6.772;2023-03-21T00:02:22;8.40;;;3.13;;
5507;SDS011;2776;51.046;6.772;2023-03-21T00:04:50;5.57;;;3.57;;
5507;SDS011;2776;51.046;6.772;2023-03-21T00:07:17;9.57;;;3.73;;
5507;SDS011;2776;51.046;6.772;2023-03-21T00:09:44;13.63;;;4.30;;
5507;SDS011;2776;51.046;6.772;2023-03-21T00:12:10;5.93;;;3.73;;
5507;SDS011;2776;51.046;6.772;2023-03-21T00:14:38;7.93;;;4.03;;
5507;SDS011;2776;51.046;6.772;2023-03-21T00:17:05;6.57;;;3.77;;
5507;SDS011;2776;51.046;6.772;2023-03-21T00:19:31;9.87;;;4.30;;
5507;SDS011;2776;51.046;6.772;2023-03-21T00:22:03;7.53;;;3.90;;
5507;SDS011;2776;51.046;6.772;2023-03-21T00:24:30;10.23;;;4.17;;
5507;SDS011;2776;51.046;6.772;2023-03-21T00:26:57;9.57;;;4.50;;
5507;SDS011;2776;51.046;6.772;2023-03-21T00:29:24;6.80;;;4.00;;
5507;SDS011;2776;51.046;6.772;2023-03-21T00:31:50;6.87;;;3.80;;
5507;SDS011;2776;51.046;6.772;2023-03-21T00:34:17;9.17;;;4.30;;
5507;SDS011;2776;51.046;6.772;2023-03-21T00:36:44;5.60;;;3.70;;
5507;SDS011;2776;51.046;6.772;2023-03-21T00:39:12;11.83;;;3.77;;
5507;SDS011;2776;51.046;6.772;2023-03-21T00:41:39;6.33;;;4.00;;
5507;SDS011;2776;51.046;6.772;2023-03-21T00:44:06;7.90;;;4.10;;
5507;SDS011;2776;51.046;6.772;2023-03-21T00:46:33;8.17;;;4.20;;
5507;SDS011;2776;51.046;6.772;2023-03-21T00:49:00;8.07;;;3.90;;
5507;SDS011;2776;51.046;6.772;2023-03-21T00:51:27;9.70;;;3.97;;
5507;SDS011;2776;51.046;6.772;2023-03-21T00:53:54;8.50;;;4.90;;
5507;SDS011;2776;51.046;6.772;2023-03-21T00:56:24;6.47;;;3.83;;
5507;SDS011;2776;51.046;6.772;2023-03-21T00:58:51;6.63;;;4.17;;
5507;SDS011;2776;51.046;6.772;2023-03-21T01:01:18;11.10;;;4.93;;
5507;SDS011;2776;51.046;6.772;2023-03-21T01:03:45;8.23;;;4.43;;
5507;SDS011;2776;51.046;6.772;2023-03-21T01:06:15;8.13;;;4.43;;
5507;SDS011;2776;51.046;6.772;2023-03-21T01:08:44;8.43;;;4.40;;
5507;SDS011;2776;51.046;6.772;2023-03-21T01:11:13;9.17;;;5.20;;
5507;SDS011;2776;51.046;6.772;2023-03-21T01:13:42;8.37;;;4.47;;
5507;SDS011;2776;51.046;6.772;2023-03-21T01:16:10;9.20;;;4.33;;
5507;SDS011;2776;51.046;6.772;2023-03-21T01:18:37;6.63;;;4.37;;
5507;SDS011;2776;51.046;6.772;2023-03-21T01:21:07;8.47;;;4.63;;
5507;SDS011;2776;51.046;6.772;2023-03-21T01:23:35;8.13;;;4.57;;
5507;SDS011;2776;51.046;6.772;2023-03-21T01:26:02;7.30;;;4.27;;
5507;SDS011;2776;51.046;6.772;2023-03-21T01:28:30;7.50;;;4.93;;
5507;SDS011;2776;51.046;6.772;2023-03-21T01:30:58;10.53;;;5.10;;
5507;SDS011;2776;51.046;6.772;2023-03-21T01:33:27;9.20;;;4.97;;
5507;SDS011;2776;51.046;6.772;2023-03-21T01:35:54;11.53;;;5.97;;
5507;SDS011;2776;51.046;6.772;2023-03-21T01:38:22;9.30;;;5.20;;
5507;SDS011;2776;51.046;6.772;2023-03-21T01:40:49;10.87;;;5.47;;
5507;SDS011;2776;51.046;6.772;2023-03-21T01:43:18;9.40;;;5.00;;
5507;SDS011;2776;51.046;6.772;2023-03-21T01:48:58;9.80;;;4.73;;
5507;SDS011;2776;51.046;6.772;2023-03-21T01:51:28;6.40;;;4.87;;
5507;SDS011;2776;51.046;6.772;2023-03-21T01:53:58;13.93;;;6.10;;
5507;SDS011;2776;51.046;6.772;2023-03-21T01:56:26;14.03;;;5.57;;
5507;SDS011;2776;51.046;6.772;2023-03-21T01:58:58;15.27;;;6.00;;
5507;SDS011;2776;51.046;6.772;2023-03-21T02:01:32;13.63;;;5.13;;
5507;SDS011;2776;51.046;6.772;2023-03-21T02:04:04;16.83;;;5.63;;
5507;SDS011;2776;51.046;6.772;2023-03-21T02:06:34;8.47;;;4.97;;
5507;SDS011;2776;51.046;6.772;2023-03-21T02:09:05;15.03;;;6.13;;
5507;SDS011;2776;51.046;6.772;2023-03-21T02:11:36;8.47;;;4.87;;
5507;SDS011;2776;51.046;6.772;2023-03-21T02:14:04;12.23;;;4.83;;
5507;SDS011;2776;51.046;6.772;2023-03-21T02:16:35;10.17;;;4.47;;
5507;SDS011;2776;51.046;6.772;2023-03-21T02:19:18;9.73;;;4.77;;
5507;SDS011;2776;51.046;6.772;2023-03-21T02:22:15;12.37;;;5.20;;
5507;SDS011;2776;51.046;6.772;2023-03-21T02:27:56;7.63;;;5.00;;
5507;SDS011;2776;51.046;6.772;2023-03-21T02:30:31;11.27;;;4.43;;
5507;SDS011;2776;51.046;6.772;2023-03-21T02:33:18;6.90;;;4.23;;
5507;SDS011;2776;51.046;6.772;2023-03-21T02:36:13;8.83;;;5.00;;
5507;SDS011;2776;51.046;6.772;2023-03-21T02:38:48;11.77;;;4.77;;
5507;SDS011;2776;51.046;6.772;2023-03-21T02:41:20;10.90;;;5.43;;
5507;SDS011;2776;51.046;6.772;2023-03-21T02:43:54;13.87;;;5.17;;
5507;SDS011;2776;51.046;6.772;2023-03-21T02:46:25;10.50;;;4.90;;
5507;SDS011;2776;51.046;6.772;2023-03-21T02:49:00;13.83;;;5.63;;
5507;SDS011;2776;51.046;6.772;2023-03-21T02:51:32;10.47;;;5.20;;
5507;SDS011;2776;51.046;6.772;2023-03-21T02:54:04;8.33;;;4.90;;
5507;SDS011;2776;51.046;6.772;2023-03-21T02:56:34;8.63;;;4.70;;
5507;SDS011;2776;51.046;6.772;2023-03-21T02:59:02;8.40;;;6.00;;
5507;SDS011;2776;51.046;6.772;2023-03-21T03:01:30;9.60;;;5.20;;
5507;SDS011;2776;51.046;6.772;2023-03-21T03:03:57;11.47;;;5.33;;
5507;SDS011;2776;51.046;6.772;2023-03-21T03:06:25;10.40;;;5.03;;
5507;SDS011;2776;51.046;6.772;2023-03-21T03:09:11;12.20;;;5.37;;
5507;SDS011;2776;51.046;6.772;2023-03-21T03:11:50;7.23;;;4.90;;
5507;SDS011;2776;51.046;6.772;2023-03-21T03:14:30;7.77;;;4.97;;
5507;SDS011;2776;51.046;6.772;2023-03-21T03:17:09;8.33;;;4.73;;
5507;SDS011;2776;51.046;6.772;2023-03-21T03:19:51;8.80;;;5.23;;
5507;SDS011;2776;51.046;6.772;2023-03-21T03:22:27;12.37;;;4.97;;
5507;SDS011;2776;51.046;6.772;2023-03-21T03:25:02;10.13;;;5.30;;
5507;SDS011;2776;51.046;6.772;2023-03-21T03:27:36;12.83;;;5.53;;
5507;SDS011;2776;51.046;6.772;2023-03-21T03:30:06;10.43;;;6.87;;
5507;SDS011;2776;51.046;6.772;2023-03-21T03:32:36;7.40;;;5.27;;
5507;SDS011;2776;51.046;6.772;2023-03-21T03:35:09;10.37;;;5.27;;
5507;SDS011;2776;51.046;6.772;2023-03-21T03:37:38;11.77;;;6.27;;
5507;SDS011;2776;51.046;6.772;2023-03-21T03:40:09;10.03;;;5.70;;
5507;SDS011;2776;51.046;6.772;2023-03-21T03:42:39;11.10;;;5.97;;
5507;SDS011;2776;51.046;6.772;2023-03-21T03:45:09;13.13;;;6.30;;
5507;SDS011;2776;51.046;6.772;2023-03-21T03:47:37;9.43;;;5.43;;
5507;SDS011;2776;51.046;6.772;2023-03-21T03:50:09;7.10;;;5.30;;
5507;SDS011;2776;51.046;6.772;2023-03-21T03:52:40;12.07;;;5.43;;
5507;SDS011;2776;51.046;6.772;2023-03-21T03:55:11;12.63;;;5.90;;
5507;SDS011;2776;51.046;6.772;2023-03-21T03:57:41;7.73;;;4.90;;
5507;SDS011;2776;51.046;6.772;2023-03-21T04:00:09;7.27;;;5.73;;
5507;SDS011;2776;51.046;6.772;2023-03-21T04:02:37;8.63;;;5.57;;
5507;SDS011;2776;51.046;6.772;2023-03-21T04:05:04;8.57;;;5.63;;
5507;SDS011;2776;51.046;6.772;2023-03-21T04:07:31;13.67;;;5.93;;
5507;SDS011;2776;51.046;6.772;2023-03-21T04:09:58;12.63;;;6.67;;
5507;SDS011;2776;51.046;6.772;2023-03-21T04:12:26;10.33;;;5.83;;
5507;SDS011;2776;51.046;6.772;2023-03-21T04:14:53;10.33;;;6.13;;
5507;SDS011;2776;51.046;6.772;2023-03-21T04:17:20;12.37;;;6.37;;
5507;SDS011;2776;51.046;6.772;2023-03-21T04:19:46;10.07;;;5.77;;
5507;SDS011;2776;51.046;6.772;2023-03-21T04:22:15;11.37;;;6.27;;
5507;SDS011;2776;51.046;6.772;2023-03-21T04:24:42;13.97;;;7.03;;
5507;SDS011;2776;51.046;6.772;2023-03-21T04:27:09;13.63;;;6.43;;
5507;SDS011;2776;51.046;6.772;2023-03-21T04:29:37;11.57;;;7.17;;
5507;SDS011;2776;51.046;6.772;2023-03-21T04:32:04;17.77;;;7.53;;
5507;SDS011;2776;51.046;6.772;2023-03-21T04:34:40;11.73;;;6.90;;
5507;SDS011;2776;51.046;6.772;2023-03-21T04:37:07;11.90;;;6.50;;
5507;SDS011;2776;51.046;6.772;2023-03-21T04:39:36;16.10;;;7.50;;
5507;SDS011;2776;51.046;6.772;2023-03-21T04:42:03;17.63;;;7.47;;
5507;SDS011;2776;51.046;6.772;2023-03-21T04:44:30;10.63;;;6.77;;
5507;SDS011;2776;51.046;6.772;2023-03-21T04:46:58;12.00;;;6.50;;
5507;SDS011;2776;51.046;6.772;2023-03-21T04:49:25;12.27;;;6.87;;
5507;SDS011;2776;51.046;6.772;2023-03-21T04:51:52;13.80;;;6.30;;
5507;SDS011;2776;51.046;6.772;2023-03-21T04:54:18;11.83;;;5.77;;
5507;SDS011;2776;51.046;6.772;2023-03-21T04:56:46;11.50;;;7.10;;
5507;SDS011;2776;51.046;6.772;2023-03-21T04:59:13;12.10;;;6.63;;
5507;SDS011;2776;51.046;6.772;2023-03-21T05:01:41;12.93;;;6.63;;
5507;SDS011;2776;51.046;6.772;2023-03-21T05:04:10;14.83;;;7.53;;
5507;SDS011;2776;51.046;6.772;2023-03-21T05:06:38;14.60;;;6.83;;
5507;SDS011;2776;51.046;6.772;2023-03-21T05:09:06;12.23;;;6.43;;
5507;SDS011;2776;51.046;6.772;2023-03-21T05:11:34;13.50;;;6.60;;
5507;SDS011;2776;51.046;6.772;2023-03-21T05:14:02;11.67;;;6.87;;
5507;SDS011;2776;51.046;6.772;2023-03-21T05:16:30;14.73;;;7.30;;
5507;SDS011;2776;51.046;6.772;2023-03-21T05:18:58;12.30;;;6.67;;
5507;SDS011;2776;51.046;6.772;2023-03-21T05:21:29;14.93;;;6.87;;
5507;SDS011;2776;51.046;6.772;2023-03-21T05:23:58;15.63;;;7.37;;
5507;SDS011;2776;51.046;6.772;2023-03-21T05:26:28;11.87;;;6.30;;
5507;SDS011;2776;51.046;6.772;2023-03-21T05:28:55;12.77;;;6.93;;
5507;SDS011;2776;51.046;6.772;2023-03-21T05:31:21;12.90;;;6.03;;
5507;SDS011;2776;51.046;6.772;2023-03-21T05:33:48;10.67;;;6.10;;
5507;SDS011;2776;51.046;6.772;2023-03-21T05:36:15;11.50;;;5.27;;
5507;SDS011;2776;51.046;6.772;2023-03-21T05:38:43;10.00;;;5.17;;
5507;SDS011;2776;51.046;6.772;2023-03-21T05:41:10;9.87;;;5.37;;
5507;SDS011;2776;51.046;6.772;2023-03-21T05:43:37;8.43;;;5.50;;
5507;SDS011;2776;51.046;6.772;2023-03-21T05:46:04;9.13;;;5.70;;
5507;SDS011;2776;51.046;6.772;2023-03-21T05:48:31;10.93;;;4.97;;
5507;SDS011;2776;51.046;6.772;2023-03-21T05:50:58;12.27;;;4.90;;
5507;SDS011;2776;51.046;6.772;2023-03-21T05:53:25;11.23;;;5.80;;
5507;SDS011;2776;51.046;6.772;2023-03-21T05:55:53;9.93;;;5.23;;
5507;SDS011;2776;51.046;6.772;2023-03-21T05:58:20;10.63;;;5.40;;
5507;SDS011;2776;51.046;6.772;2023-03-21T06:00:47;10.33;;;5.80;;
5507;SDS011;2776;51.046;6.772;2023-03-21T06:03:14;12.77;;;5.53;;
5507;SDS011;2776;51.046;6.772;2023-03-21T06:05:40;9.77;;;5.63;;
5507;SDS011;2776;51.046;6.772;2023-03-21T06:08:07;12.27;;;4.87;;
5507;SDS011;2776;51.046;6.772;2023-03-21T06:10:34;11.20;;;6.47;;
5507;SDS011;2776;51.046;6.772;2023-03-21T06:13:02;13.47;;;6.07;;
5507;SDS011;2776;51.046;6.772;2023-03-21T06:15:29;11.77;;;5.13;;
5507;SDS011;2776;51.046;6.772;2023-03-21T06:17:56;11.23;;;5.03;;
5507;SDS011;2776;51.046;6.772;2023-03-21T06:20:22;13.40;;;6.03;;
5507;SDS011;2776;51.046;6.772;2023-03-21T06:22:49;14.27;;;5.53;;
5507;SDS011;2776;51.046;6.772;2023-03-21T06:25:16;13.83;;;6.20;;
5507;SDS011;2776;51.046;6.772;2023-03-21T06:27:43;12.87;;;5.60;;
5507;SDS011;2776;51.046;6.772;2023-03-21T06:30:12;9.23;;;5.53;;
5507;SDS011;2776;51.046;6.772;2023-03-21T06:32:39;10.97;;;5.33;;
5507;SDS011;2776;51.046;6.772;2023-03-21T06:35:06;12.23;;;5.47;;
5507;SDS011;2776;51.046;6.772;2023-03-21T06:37:33;7.83;;;5.17;;
5507;SDS011;2776;51.046;6.772;2023-03-21T06:40:00;11.27;;;5.80;;
5507;SDS011;2776;51.046;6.772;2023-03-21T06:42:29;11.60;;;5.50;;
5507;SDS011;2776;51.046;6.772;2023-03-21T06:44:56;9.33;;;5.17;;
5507;SDS011;2776;51.046;6.772;2023-03-21T06:47:24;9.70;;;5.90;;
5507;SDS011;2776;51.046;6.772;2023-03-21T06:49:51;15.20;;;6.40;;
5507;SDS011;2776;51.046;6.772;2023-03-21T06:52:18;10.70;;;5.43;;
5507;SDS011;2776;51.046;6.772;2023-03-21T06:54:44;13.40;;;5.70;;
5507;SDS011;2776;51.046;6.772;2023-03-21T06:57:11;11.47;;;5.73;;
5507;SDS011;2776;51.046;6.772;2023-03-21T06:59:38;10.97;;;5.77;;
5507;SDS011;2776;51.046;6.772;2023-03-21T07:02:05;9.47;;;6.20;;
5507;SDS011;2776;51.046;6.772;2023-03-21T07:04:36;10.93;;;6.30;;
5507;SDS011;2776;51.046;6.772;2023-03-21T07:07:02;12.87;;;6.20;;
5507;SDS011;2776;51.046;6.772;2023-03-21T07:09:29;15.00;;;7.07;;
5507;SDS011;2776;51.046;6.772;2023-03-21T07:11:56;11.30;;;6.83;;
5507;SDS011;2776;51.046;6.772;2023-03-21T07:14:22;13.23;;;6.57;;
5507;SDS011;2776;51.046;6.772;2023-03-21T07:16:50;11.83;;;6.37;;
5507;SDS011;2776;51.046;6.772;2023-03-21T07:19:16;12.00;;;7.50;;
5507;SDS011;2776;51.046;6.772;2023-03-21T07:21:44;12.53;;;7.17;;
5507;SDS011;2776;51.046;6.772;2023-03-21T07:24:11;16.90;;;6.73;;
5507;SDS011;2776;51.046;6.772;2023-03-21T07:26:38;13.00;;;7.20;;
5507;SDS011;2776;51.046;6.772;2023-03-21T07:29:05;11.77;;;6.93;;
5507;SDS011;2776;51.046;6.772;2023-03-21T07:31:31;13.67;;;7.43;;
5507;SDS011;2776;51.046;6.772;2023-03-21T07:33:59;13.30;;;6.73;;
5507;SDS011;2776;51.046;6.772;2023-03-21T07:36:26;10.80;;;6.27;;
5507;SDS011;2776;51.046;6.772;2023-03-21T07:38:54;12.63;;;6.83;;
5507;SDS011;2776;51.046;6.772;2023-03-21T07:41:21;14.97;;;7.70;;
5507;SDS011;2776;51.046;6.772;2023-03-21T07:43:47;15.70;;;8.10;;
5507;SDS011;2776;51.046;6.772;2023-03-21T07:46:14;13.63;;;7.77;;
5507;SDS011;2776;51.046;6.772;2023-03-21T07:48:41;13.40;;;8.40;;
5507;SDS011;2776;51.046;6.772;2023-03-21T07:51:08;17.17;;;7.93;;
5507;SDS011;2776;51.046;6.772;2023-03-21T07:53:34;14.73;;;9.40;;
5507;SDS011;2776;51.046;6.772;2023-03-21T07:56:03;14.73;;;7.40;;
5507;SDS011;2776;51.046;6.772;2023-03-21T07:58:30;13.23;;;7.80;;
5507;SDS011;2776;51.046;6.772;2023-03-21T08:00:58;14.90;;;8.33;;
5507;SDS011;2776;51.046;6.772;2023-03-21T08:03:26;17.30;;;7.17;;
5507;SDS011;2776;51.046;6.772;2023-03-21T08:05:53;16.77;;;7.43;;
5507;SDS011;2776;51.046;6.772;2023-03-21T08:08:20;13.80;;;8.00;;
5507;SDS011;2776;51.046;6.772;2023-03-21T08:10:47;12.40;;;7.60;;
5507;SDS011;2776;51.046;6.772;2023-03-21T08:13:15;11.70;;;7.13;;
5507;SDS011;2776;51.046;6.772;2023-03-21T08:15:42;12.83;;;8.03;;
5507;SDS011;2776;51.046;6.772;2023-03-21T08:18:09;15.20;;;8.03;;
5507;SDS011;2776;51.046;6.772;2023-03-21T08:20:36;10.87;;;7.50;;
5507;SDS011;2776;51.046;6.772;2023-03-21T08:23:03;17.00;;;9.27;;
5507;SDS011;2776;51.046;6.772;2023-03-21T08:25:30;15.53;;;9.13;;
5507;SDS011;2776;51.046;6.772;2023-03-21T08:27:57;18.60;;;8.93;;
5507;SDS011;2776;51.046;6.772;2023-03-21T08:30:25;13.37;;;8.27;;
5507;SDS011;2776;51.046;6.772;2023-03-21T08:32:55;15.53;;;8.73;;
5507;SDS011;2776;51.046;6.772;2023-03-21T08:35:22;15.93;;;8.13;;
5507;SDS011;2776;51.046;6.772;2023-03-21T08:37:49;9.80;;;8.03;;
5507;SDS011;2776;51.046;6.772;2023-03-21T08:40:16;17.73;;;8.13;;
5507;SDS011;2776;51.046;6.772;2023-03-21T08:42:44;12.47;;;8.20;;
5507;SDS011;2776;51.046;6.772;2023-03-21T08:45:11;13.90;;;8.23;;
5507;SDS011;2776;51.046;6.772;2023-03-21T08:47:41;12.50;;;7.90;;
5507;SDS011;2776;51.046;6.772;2023-03-21T08:50:08;12.03;;;7.53;;
5507;SDS011;2776;51.046;6.772;2023-03-21T08:52:38;17.77;;;8.10;;
5507;SDS011;2776;51.046;6.772;2023-03-21T08:55:05;11.57;;;8.10;;
5507;SDS011;2776;51.046;6.772;2023-03-21T08:57:33;12.73;;;8.07;;
5507;SDS011;2776;51.046;6.772;2023-03-21T09:00:00;14.20;;;7.43;;
5507;SDS011;2776;51.046;6.772;2023-03-21T09:02:31;12.53;;;6.87;;
5507;SDS011;2776;51.046;6.772;2023-03-21T09:04:59;13.03;;;7.30;;
5507;SDS011;2776;51.046;6.772;2023-03-21T09:07:25;12.13;;;7.13;;
5507;SDS011;2776;51.046;6.772;2023-03-21T09:09:52;11.20;;;7.83;;
5507;SDS011;2776;51.046;6.772;2023-03-21T09:12:19;17.27;;;9.77;;
5507;SDS011;2776;51.046;6.772;2023-03-21T09:14:46;14.77;;;10.20;;
5507;SDS011;2776;51.046;6.772;2023-03-21T09:17:14;12.77;;;8.17;;
5507;SDS011;2776;51.046;6.772;2023-03-21T09:19:40;12.20;;;8.00;;
5507;SDS011;2776;51.046;6.772;2023-03-21T09:22:09;13.83;;;7.93;;
5507;SDS011;2776;51.046;6.772;2023-03-21T09:24:41;12.93;;;8.07;;
5507;SDS011;2776;51.046;6.772;2023-03-21T09:27:09;14.23;;;8.13;;
5507;SDS011;2776;51.046;6.772;2023-03-21T09:29:36;14.07;;;8.30;;
5507;SDS011;2776;51.046;6.772;2023-03-21T09:32:04;14.47;;;8.40;;
5507;SDS011;2776;51.046;6.772;2023-03-21T09:34:32;14.67;;;7.13;;
5507;SDS011;2776;51.046;6.772;2023-03-21T09:37:01;9.97;;;7.17;;
5507;SDS011;2776;51.046;6.772;2023-03-21T09:39:35;14.23;;;7.53;;
5507;SDS011;2776;51.046;6.772;2023-03-21T09:42:06;10.10;;;7.47;;
5507;SDS011;2776;51.046;6.772;2023-03-21T09:44:47;11.17;;;7.80;;
5507;SDS011;2776;51.046;6.772;2023-03-21T09:47:26;15.70;;;7.67;;
5507;SDS011;2776;51.046;6.772;2023-03-21T09:49:57;10.67;;;6.90;;
5507;SDS011;2776;51.046;6.772;2023-03-21T09:52:28;10.80;;;7.33;;
5507;SDS011;2776;51.046;6.772;2023-03-21T09:54:59;15.33;;;6.73;;
5507;SDS011;2776;51.046;6.772;2023-03-21T09:57:43;11.43;;;6.60;;
5507;SDS011;2776;51.046;6.772;2023-03-21T10:00:14;10.90;;;7.13;;
5507;SDS011;2776;51.046;6.772;2023-03-21T10:02:49;11.10;;;7.20;;
5507;SDS011;2776;51.046;6.772;2023-03-21T10:05:18;12.70;;;7.07;;
5507;SDS011;2776;51.046;6.772;2023-03-21T10:07:49;13.83;;;7.50;;
5507;SDS011;2776;51.046;6.772;2023-03-21T10:10:21;9.37;;;7.13;;
5507;SDS011;2776;51.046;6.772;2023-03-21T10:12:52;17.07;;;7.57;;
5507;SDS011;2776;51.046;6.772;2023-03-21T10:15:22;11.13;;;6.63;;
5507;SDS011;2776;51.046;6.772;2023-03-21T10:17:52;11.33;;;6.53;;
5507;SDS011;2776;51.046;6.772;2023-03-21T10:20:22;9.47;;;6.77;;
5507;SDS011;2776;51.046;6.772;2023-03-21T10:22:51;10.90;;;7.07;;
5507;SDS011;2776;51.046;6.772;2023-03-21T10:25:23;11.37;;;7.10;;
5507;SDS011;2776;51.046;6.772;2023-03-21T10:27:55;11.87;;;6.40;;
5507;SDS011;2776;51.046;6.772;2023-03-21T10:30:34;12.60;;;7.43;;
5507;SDS011;2776;51.046;6.772;2023-03-21T10:33:05;10.77;;;6.50;;
5507;SDS011;2776;51.046;6.772;2023-03-21T10:35:36;12.57;;;6.77;;
5507;SDS011;2776;51.046;6.772;2023-03-21T10:38:04;9.83;;;7.00;;
5507;SDS011;2776;51.046;6.772;2023-03-21T10:40:33;11.13;;;6.23;;
5507;SDS011;2776;51.046;6.772;2023-03-21T10:43:15;9.50;;;6.00;;
5507;SDS011;2776;51.046;6.772;2023-03-21T10:45:44;12.47;;;5.80;;
5507;SDS011;2776;51.046;6.772;2023-03-21T10:48:12;9.77;;;5.73;;
5507;SDS011;2776;51.046;6.772;2023-03-21T10:50:39;11.03;;;6.10;;
5507;SDS011;2776;51.046;6.772;2023-03-21T10:53:10;11.50;;;6.40;;
5507;SDS011;2776;51.046;6.772;2023-03-21T10:55:44;8.40;;;5.80;;
5507;SDS011;2776;51.046;6.772;2023-03-21T10:58:13;8.87;;;5.90;;
5507;SDS011;2776;51.046;6.772;2023-03-21T11:00:43;10.83;;;5.63;;
5507;SDS011;2776;51.046;6.772;2023-03-21T11:03:16;8.33;;;5.57;;
5507;SDS011;2776;51.046;6.772;2023-03-21T11:05:46;7.20;;;5.30;;
5507;SDS011;2776;51.046;6.772;2023-03-21T11:08:14;7.27;;;4.93;;
5507;SDS011;2776;51.046;6.772;2023-03-21T11:10:49;12.03;;;4.50;;
5507;SDS011;2776;51.046;6.772;2023-03-21T11:13:22;8.87;;;4.73;;
5507;SDS011;2776;51.046;6.772;2023-03-21T11:15:52;11.30;;;4.67;;
5507;SDS011;2776;51.046;6.772;2023-03-21T11:18:20;8.50;;;4.80;;
5507;SDS011;2776;51.046;6.772;2023-03-21T11:20:49;8.43;;;4.77;;
5507;SDS011;2776;51.046;6.772;2023-03-21T11:23:18;11.10;;;5.90;;
5507;SDS011;2776;51.046;6.772;2023-03-21T11:25:46;7.47;;;4.90;;
5507;SDS011;2776;51.046;6.772;2023-03-21T11:28:16;7.80;;;4.87;;
5507;SDS011;2776;51.046;6.772;2023-03-21T11:30:49;11.37;;;5.33;;
5507;SDS011;2776;51.046;6.772;2023-03-21T11:33:19;7.27;;;5.10;;
5507;SDS011;2776;51.046;6.772;2023-03-21T11:35:56;8.20;;;4.90;;
5507;SDS011;2776;51.046;6.772;2023-03-21T11:38:25;7.40;;;4.77;;
5507;SDS011;2776;51.046;6.772;2023-03-21T11:40:57;7.97;;;5.03;;
5507;SDS011;2776;51.046;6.772;2023-03-21T11:43:26;6.47;;;4.60;;
5507;SDS011;2776;51.046;6.772;2023-03-21T11:45:56;10.70;;;6.03;;
5507;SDS011;2776;51.046;6.772;2023-03-21T11:48:23;8.67;;;5.80;;
5507;SDS011;2776;51.046;6.772;2023-03-21T11:50:51;10.47;;;6.13;;
5507;SDS011;2776;51.046;6.772;2023-03-21T11:53:29;10.03;;;6.43;;
5507;SDS011;2776;51.046;6.772;2023-03-21T11:56:17;7.60;;;5.13;;
5507;SDS011;2776;51.046;6.772;2023-03-21T11:58:53;7.67;;;4.77;;
5507;SDS011;2776;51.046;6.772;2023-03-21T12:01:34;9.03;;;5.30;;
5507;SDS011;2776;51.046;6.772;2023-03-21T12:04:12;8.87;;;5.70;;
5507;SDS011;2776;51.046;6.772;2023-03-21T12:06:47;11.07;;;6.10;;
5507;SDS011;2776;51.046;6.772;2023-03-21T12:09:28;8.97;;;5.77;;
5507;SDS011;2776;51.046;6.772;2023-03-21T12:12:04;10.03;;;5.80;;
5507;SDS011;2776;51.046;6.772;2023-03-21T12:14:44;8.83;;;5.97;;
5507;SDS011;2776;51.046;6.772;2023-03-21T12:17:23;8.17;;;5.70;;
5507;SDS011;2776;51.046;6.772;2023-03-21T12:20:02;7.03;;;5.93;;
5507;SDS011;2776;51.046;6.772;2023-03-21T12:22:44;8.03;;;5.40;;
5507;SDS011;2776;51.046;6.772;2023-03-21T12:25:23;7.50;;;5.13;;
5507;SDS011;2776;51.046;6.772;2023-03-21T12:27:57;7.90;;;6.07;;
5507;SDS011;2776;51.046;6.772;2023-03-21T12:30:37;10.33;;;5.37;;
5507;SDS011;2776;51.046;6.772;2023-03-21T12:33:13;6.10;;;5.20;;
5507;SDS011;2776;51.046;6.772;2023-03-21T12:35:53;7.87;;;5.37;;
5507;SDS011;2776;51.046;6.772;2023-03-21T12:38:31;8.57;;;5.40;;
5507;SDS011;2776;51.046;6.772;2023-03-21T12:41:11;9.77;;;5.07;;
5507;SDS011;2776;51.046;6.772;2023-03-21T12:43:49;7.43;;;5.30;;
5507;SDS011;2776;51.046;6.772;2023-03-21T12:46:21;8.37;;;5.43;;
5507;SDS011;2776;51.046;6.772;2023-03-21T12:48:52;10.07;;;4.90;;
5507;SDS011;2776;51.046;6.772;2023-03-21T12:51:25;7.47;;;5.73;;
5507;SDS011;2776;51.046;6.772;2023-03-21T12:53:58;9.53;;;6.03;;
5507;SDS011;2776;51.046;6.772;2023-03-21T12:56:31;7.27;;;5.23;;
5507;SDS011;2776;51.046;6.772;2023-03-21T12:59:05;9.67;;;5.57;;
5507;SDS011;2776;51.046;6.772;2023-03-21T13:01:41;11.37;;;5.63;;
5507;SDS011;2776;51.046;6.772;2023-03-21T13:04:29;8.57;;;5.43;;
5507;SDS011;2776;51.046;6.772;2023-03-21T13:07:02;6.30;;;4.70;;
5507;SDS011;2776;51.046;6.772;2023-03-21T13:09:33;8.40;;;4.97;;
5507;SDS011;2776;51.046;6.772;2023-03-21T13:12:02;6.30;;;4.93;;
5507;SDS011;2776;51.046;6.772;2023-03-21T13:14:41;8.40;;;4.50;;
5507;SDS011;2776;51.046;6.772;2023-03-21T13:17:18;8.87;;;5.07;;
5507;SDS011;2776;51.046;6.772;2023-03-21T13:19:53;9.00;;;5.33;;
5507;SDS011;2776;51.046;6.772;2023-03-21T13:22:27;5.90;;;4.50;;
5507;SDS011;2776;51.046;6.772;2023-03-21T13:24:57;7.27;;;5.37;;
5507;SDS011;2776;51.046;6.772;2023-03-21T13:27:26;7.83;;;4.90;;
5507;SDS011;2776;51.046;6.772;2023-03-21T13:29:58;7.73;;;5.33;;
5507;SDS011;2776;51.046;6.772;2023-03-21T13:32:31;10.13;;;5.10;;
5507;SDS011;2776;51.046;6.772;2023-03-21T13:34:59;8.23;;;4.80;;
5507;SDS011;2776;51.046;6.772;2023-03-21T13:37:30;6.90;;;4.70;;
5507;SDS011;2776;51.046;6.772;2023-03-21T13:40:00;10.17;;;4.47;;
5507;SDS011;2776;51.046;6.772;2023-03-21T13:42:33;7.00;;;4.50;;
5507;SDS011;2776;51.046;6.772;2023-03-21T13:45:05;9.00;;;6.23;;
5507;SDS011;2776;51.046;6.772;2023-03-21T13:47:40;9.57;;;5.30;;
5507;SDS011;2776;51.046;6.772;2023-03-21T13:50:24;7.47;;;5.23;;
5507;SDS011;2776;51.046;6.772;2023-03-21T13:53:09;9.30;;;6.83;;
5507;SDS011;2776;51.046;6.772;2023-03-21T13:55:46;5.67;;;4.80;;
5507;SDS011;2776;51.046;6.772;2023-03-21T13:58:30;6.93;;;4.97;;
5507;SDS011;2776;51.046;6.772;2023-03-21T14:01:08;8.23;;;5.37;;
5507;SDS011;2776;51.046;6.772;2023-03-21T14:03:42;6.17;;;3.97;;
5507;SDS011;2776;51.046;6.772;2023-03-21T14:06:10;6.50;;;4.43;;
5507;SDS011;2776;51.046;6.772;2023-03-21T14:08:38;9.57;;;5.90;;
5507;SDS011;2776;51.046;6.772;2023-03-21T14:11:09;6.00;;;4.80;;
5507;SDS011;2776;51.046;6.772;2023-03-21T14:13:40;7.10;;;4.40;;
5507;SDS011;2776;51.046;6.772;2023-03-21T14:16:10;6.37;;;4.60;;
5507;SDS011;2776;51.046;6.772;2023-03-21T14:18:40;7.73;;;4.47;;
5507;SDS011;2776;51.046;6.772;2023-03-21T14:21:14;6.40;;;4.50;;
5507;SDS011;2776;51.046;6.772;2023-03-21T14:23:42;6.47;;;4.57;;
5507;SDS011;2776;51.046;6.772;2023-03-21T14:26:09;6.93;;;5.30;;
5507;SDS011;2776;51.046;6.772;2023-03-21T14:28:37;7.33;;;4.87;;
5507;SDS011;2776;51.046;6.772;2023-03-21T14:31:12;5.83;;;4.37;;
5507;SDS011;2776;51.046;6.772;2023-03-21T14:33:41;6.67;;;4.37;;
5507;SDS011;2776;51.046;6.772;2023-03-21T14:36:14;7.73;;;4.70;;
5507;SDS011;2776;51.046;6.772;2023-03-21T14:38:51;7.57;;;4.97;;
5507;SDS011;2776;51.046;6.772;2023-03-21T14:41:21;6.07;;;4.50;;
5507;SDS011;2776;51.046;6.772;2023-03-21T14:44:00;5.57;;;4.50;;
5507;SDS011;2776;51.046;6.772;2023-03-21T14:46:29;6.33;;;4.10;;
5507;SDS011;2776;51.046;6.772;2023-03-21T14:49:08;8.30;;;4.60;;
5507;SDS011;2776;51.046;6.772;2023-03-21T14:51:36;5.30;;;4.03;;
5507;SDS011;2776;51.046;6.772;2023-03-21T14:54:03;6.90;;;5.20;;
5507;SDS011;2776;51.046;6.772;2023-03-21T14:56:31;6.13;;;4.73;;
5507;SDS011;2776;51.046;6.772;2023-03-21T14:59:00;7.40;;;4.87;;
5507;SDS011;2776;51.046;6.772;2023-03-21T15:01:28;6.63;;;4.63;;
5507;SDS011;2776;51.046;6.772;2023-03-21T15:03:59;9.23;;;5.20;;
5507;SDS011;2776;51.046;6.772;2023-03-21T15:06:29;5.73;;;4.60;;
5507;SDS011;2776;51.046;6.772;2023-03-21T15:08:57;7.47;;;4.63;;
5507;SDS011;2776;51.046;6.772;2023-03-21T15:11:29;9.30;;;4.53;;
5507;SDS011;2776;51.046;6.772;2023-03-21T15:13:56;7.23;;;4.93;;
5507;SDS011;2776;51.046;6.772;2023-03-21T15:16:25;8.43;;;5.00;;
5507;SDS011;2776;51.046;6.772;2023-03-21T15:18:54;6.27;;;4.70;;
5507;SDS011;2776;51.046;6.772;2023-03-21T15:21:22;6.83;;;4.90;;
5507;SDS011;2776;51.046;6.772;2023-03-21T15:23:52;5.30;;;4.80;;
5507;SDS011;2776;51.046;6.772;2023-03-21T15:26:21;8.47;;;4.47;;
5507;SDS011;2776;51.046;6.772;2023-03-21T15:28:54;5.07;;;4.57;;
5507;SDS011;2776;51.046;6.772;2023-03-21T15:31:23;7.60;;;5.33;;
5507;SDS011;2776;51.046;6.772;2023-03-21T15:33:55;8.37;;;5.10;;